Jackson, MS (39289)

4:23 PM CDT on July 28, 2014 (GMT -0500)
Brinkly (KMSJACKS3) Elev 344 ft | 32.35 °N, 90.20 °W | Change Station

Current weather conditions updated 10 minutes ago

Clear
Clear
88.9 °F
Feels Like 98 °F
N
1.7
Wind Variable Wind from West

Tomorrow is forecast to be Cooler than today.

Today
High -- | Low -- °F
--% Chance of Precip.
Yesterday
High -- | Low -- °F
Precip. -- in
6:13 AM 8:01 PM
Waxing Crescent, 3% visible
Pressure 30.00 in
Visibility 10.0 miles
Clouds Clear
Heat Index 98 °F
Dew Point 74 °F
Humidity 61%
Rainfall 0.00 in
Snow Depth Not available.
UV 8 out of 12
Pollen 4.10 out of 12
Air Quality Not available.
Flu Activity Not available.
METAR KHKS 282053Z 32010KT 10SM CLR 32/19 A3002 RMK AO2 SLP157 T03220189 56010

More Conditions Fewer Conditions

Pressure 30.00 in
Visibility 10.0 miles
Clouds Clear
Heat Index 98 °F
Dew Point 74 °F
Humidity 61%
Rainfall 0.00 in
Snow Depth Not available.
UV 8 out of 12
Pollen 4.10 out of 12
Air Quality Not available.
Flu Activity Not available.
METAR KHKS 282053Z 32010KT 10SM CLR 32/19 A3002 RMK AO2 SLP157 T03220189 56010

More Conditions Fewer Conditions

10-Day Weather Forecast

Almanac

Astronomy

Jul. 28, 2014 Rise Set
Actual Time 6:13 AM CDT 8:01 PM CDT
Civil Twilight 5:46 AM CDT 8:28 PM CDT
Nautical Twilight 5:13 AM CDT 9:01 PM CDT
Astronomical Twilight 4:38 AM CDT 9:35 PM CDT
Moon 7:45 AM CDT 8:53 PM CDT
Length of Visible Light 14h 42m
Length of Day
13h 48m
Tomorrow will be 1m 23s shorter.
Waxing Crescent, 3% of the Moon is Illuminated
Today
Waxing Crescent
Aug 3
First Quarter
Aug 10
Full
Aug 17
Last Quarter
Aug 25
New

Today's Extremes

State Highs State Lows

Community

WunderPhotos

Upload Photos

1,738,493 photos uploaded!

WunderBlogs® & News

Nearby

Snow Depth

Station Depth Elevation
No new snow has been reported.

Earthquake Activity

City Distance Mag. Time & Date
No recent earthquake activity has been reported nearby.
Minimum magnitude displayed is 2.5.

Coastal Water Temperatures

Place Temperature
No Stations Reporting

Nearby Weather Stations

Station Location Temp. Heat Index Dew Point Humidity Wind Precip. Elev Updated Type
Brinkly, Jackson, MS 88.9 °F 98 °F 74 °F 61% West  at  1.7 mph - / hr 344 ft 4:13 PM CDT Normal
Red Oak, Gluckstadt, MS 92.1 °F 99 °F 71 °F 50% South  at  7.0 mph 0.00 in / hr 289 ft 4:23 PM CDT Rapid Fire
Turtle Ridge, Brandon, MS 82.8 °F 90 °F 74 °F 76% NW  at  0.0 mph 0.00 in / hr 393 ft 3:56 PM CDT Normal
Florence, FLORENCE, MS 90.9 °F 107 °F 79 °F 68% North  at  2.2 mph - / hr 367 ft 1:40 PM CDT Normal
Country Meadows, Brandon, MS 91.6 °F 101 °F 73 °F 55% NNW  at  3.7 mph - / hr 367 ft 4:08 PM CDT Normal
Raintree Place, Brandon, MS 91.4 °F 97 °F 70 °F 49% WNW  at  7.3 mph - / hr 410 ft 4:14 PM CDT Normal
Tank, Crystal Springs, MS 90.0 °F 99 °F 74 °F 59% NW  at  7.4 mph - / hr 338 ft 4:09 PM CDT Normal

Show More Stations Show Fewer Stations